• Join FlightAware (Why Join?)
  • Login
  • US Flag 
08:05PM EST


 

Airport Tracker/Info


-or-


 

Live Flight TrackerFlight Track Log ✈ EJA826 ✈ 17-May-2013 ✈ KTOA - KLAS

Flight Track Log - Related Links

Times and Time Zones

All times are in EDT time to prevent confusion due to time zone crossing. See the EJA826 flight status page for this flight to view local times or setup timezone preferences in your user account.

Time Position Orientation Groundspeed Altitude Reporting Facility
EDT Latitude Longitude Course Direction KTS MPH feet Rate Location/Type
03:56PM 33.8333 -118.3833 35° Northeast 202 232 2,300  Level Southern California TRACON
03:57PM 33.8436 -118.4033 302° West 206 237 3,000 480 Climbing Los Angeles Center
03:58PM 33.7978 -118.4633 227° Southwest 213 245 3,100 960 Climbing Los Angeles Center
03:59PM 33.7519 -118.5086 219° Southwest 218 251 5,100 2,160 Climbing Los Angeles Center
04:00PM 33.6972 -118.5442 208° Southwest 235 270 7,600 2,460 Climbing Los Angeles Center
04:01PM 33.6308 -118.5289 169° South 245 282 10,200 2,220 Climbing Los Angeles Center
04:02PM 34.0256 -117.8233 35° Northeast  Level FlightAware Approximate
04:02PM 33.6206 -118.4250 97° East 295 339 12,200  Level Los Angeles Center
04:03PM 33.6672 -118.3206 62° Northeast 352 405 14,100 1,980 Climbing Los Angeles Center
04:04PM 33.7144 -118.2128 62° Northeast 378 435 16,400 1,320 Climbing Los Angeles Center
04:05PM 33.7728 -118.0789 62° Northeast 382 440 16,900 720 Climbing Los Angeles Center
04:06PM 33.8489 -117.9956 42° Northeast 381 438 18,000 1,260 Climbing Los Angeles Center
04:07PM 33.9458 -117.9694 13° North 370 426 19,600 1,440 Climbing Los Angeles Center
04:08PM 34.0503 -117.9647 North 383 441 21,000 660 Climbing Los Angeles Center
04:09PM 34.1286 -117.8653 46° Northeast 414 476 21,000  Level Los Angeles Center
04:10PM 34.2142 -117.7347 52° Northeast 415 478 21,000  Level Los Angeles Center
04:11PM 34.2864 -117.6258 51° Northeast 416 479 21,000  Level Los Angeles Center
04:12PM 34.3583 -117.5161 52° Northeast 417 480 21,000  Level Los Angeles Center
04:13PM 34.4344 -117.3981 52° Northeast 419 482 21,000  Level Los Angeles Center
04:14PM 34.5025 -117.2906 52° Northeast 409 471 21,000  Level Los Angeles Center
04:16PM 34.5742 -117.1808 52° Northeast 415 478 21,000  Level Los Angeles Center
04:17PM 34.6458 -117.0717 51° Northeast 416 479 21,000  Level Los Angeles Center
04:18PM 34.7314 -116.9378 52° Northeast 420 483 21,000  Level Los Angeles Center
04:19PM 34.8014 -116.8272 52° Northeast 418 481 21,000  Level Los Angeles Center
04:20PM 34.8719 -116.7175 52° Northeast 414 476 21,000  Level Los Angeles Center
04:21PM 34.9419 -116.6075 52° Northeast 414 476 21,000  Level Los Angeles Center
04:22PM 35.0200 -116.5033 48° Northeast 417 480 21,000  Level Los Angeles Center
04:23PM 35.1006 -116.4017 46° Northeast 418 481 21,000  Level Los Angeles Center
04:24PM 35.1981 -116.2817 45° Northeast 416 479 21,000  Level Los Angeles Center
04:25PM 35.2783 -116.1817 45° Northeast 413 475 21,000  Level Los Angeles Center
04:26PM 35.3575 -116.0786 47° Northeast 415 478 21,000 -1,020 Level Los Angeles Center
04:27PM 35.4378 -115.9800 45° Northeast 412 474 19,000 -2,100 Descending Los Angeles Center
04:28PM 35.5222 -115.8744 45° Northeast 399 459 16,900 -2,040 Descending Los Angeles Center
04:28PM 35.5558 -115.8297 47° Northeast 394 453 16,000 -1,740 Descending Los Angeles Center
04:29PM 35.5983 -115.7761 46° Northeast 388 447 15,000 -1,920 Descending Los Angeles Center
04:29PM 35.6358 -115.7300 45° Northeast 381 438 14,100 -1,800 Descending Los Angeles Center
04:30PM 35.6711 -115.6833 47° Northeast 381 438 13,200 -1,020 Descending Los Angeles Center
04:30PM 35.7069 -115.6386 45° Northeast 372 428 13,100 -240 Descending Los Angeles Center
04:31PM 35.7531 -115.5836 44° Northeast 369 425 13,000 -120 Descending Los Angeles Center
04:31PM 35.7903 -115.5747 11° North 358 412 13,000 -120 Level Los Angeles Center
04:32PM 35.8519 -115.5689 North 355 409 12,900 -540 Descending Los Angeles Center
04:32PM 35.8886 -115.5694 359° North 355 409 12,500 -1,080 Descending Los Angeles Center
04:33PM 35.9550 -115.5539 11° North 353 406 11,800 -1,140 Descending Los Angeles Center
04:33PM 35.9800 -115.5239 44° Northeast 357 411 11,400 -1,080 Descending Los Angeles Center
04:34PM 36.0042 -115.4553 66° East 351 404 10,700 -1,200 Descending Los Angeles Center
04:34PM 36.0189 -115.4131 67° East 338 389 10,200 -720 Descending Los Angeles Center
04:35PM 36.0275 -115.3500 80° East 329 379 10,000 -300 Descending Los Angeles Center
04:35PM 36.0247 -115.3100 95° East 278 320 9,900 -720 Descending Los Angeles Center
04:36PM 36.0214 -115.2603 95° East 274 315 9,300 -1,140 Descending Los Angeles Center
04:36PM 36.0197 -115.2267 93° East 247 284 8,800 -1,200 Descending Los Angeles Center
04:37PM 36.0158 -115.1775 96° East 251 289 8,100 -720 Descending Los Angeles Center
04:38PM 36.0144 -115.1433 93° East 243 280 8,100  Level Los Angeles Center
04:38PM 36.0094 -115.0789 95° East 244 281 8,100 -240 Level Los Angeles Center
04:39PM 36.0592 -115.0406 32° Northeast 231 266 7,700 -1,140 Descending Los Angeles Center
04:40PM 36.1144 -115.0561 347° North 209 241 5,800 -2,040 Descending Los Angeles Center
04:42PM 36.1347 -115.1197 292° West 136 157 3,200 -1,500 Descending Los Angeles Center
04:43PM 36.1147 -115.1475 228° Southwest 116 133 2,600 -600 Descending Los Angeles Center
04:43PM 36.0975 -115.1569 204° Southwest 120 138 2,100 -600 Descending Los Angeles Center
04:45PM 36.0801 -115.1523 143° Southeast  Level Estimated
04:52PM 36.0801 -115.1523 270° West  Level Estimated